createdAt,value
2019-05-28T00:01:20.530Z,1.80
2019-05-28T00:03:46.697Z,2.30
2019-05-28T00:06:12.859Z,2.10
2019-05-28T00:08:39.057Z,1.77
2019-05-28T00:11:05.218Z,2.13
2019-05-28T00:13:31.376Z,2.33
2019-05-28T00:15:57.535Z,1.97
2019-05-28T00:18:23.728Z,2.57
2019-05-28T00:20:49.897Z,1.80
2019-05-28T00:23:16.076Z,2.40
2019-05-28T00:25:42.263Z,2.27
2019-05-28T00:28:08.755Z,1.57
2019-05-28T00:30:35.075Z,2.17
2019-05-28T00:33:01.250Z,2.57
2019-05-28T00:35:27.430Z,2.23
2019-05-28T00:37:53.596Z,2.17
2019-05-28T00:40:20.294Z,2.30
2019-05-28T00:42:46.468Z,2.20
2019-05-28T00:45:14.667Z,2.17
2019-05-28T00:47:40.849Z,2.00
2019-05-28T00:50:08.713Z,2.33
2019-05-28T00:52:34.974Z,2.90
2019-05-28T00:55:01.482Z,2.07
2019-05-28T00:57:27.963Z,2.37
2019-05-28T00:59:54.983Z,2.30
2019-05-28T01:02:21.143Z,2.67
2019-05-28T01:04:47.420Z,2.10
2019-05-28T01:07:13.728Z,2.30
2019-05-28T01:09:40.006Z,2.57
2019-05-28T01:12:06.169Z,2.27
2019-05-28T01:14:32.476Z,2.70
2019-05-28T01:16:58.612Z,2.33
2019-05-28T01:19:24.783Z,2.10
2019-05-28T01:21:50.933Z,2.40
2019-05-28T01:24:17.240Z,2.20
2019-05-28T01:26:43.414Z,2.27
2019-05-28T01:29:09.596Z,1.90
2019-05-28T01:31:35.853Z,2.50
2019-05-28T01:34:02.045Z,2.20
2019-05-28T01:36:28.305Z,1.80
2019-05-28T01:38:54.470Z,2.17
2019-05-28T01:41:20.646Z,2.23
2019-05-28T01:43:46.802Z,2.40
2019-05-28T01:46:13.019Z,2.27
2019-05-28T01:48:39.202Z,2.30
2019-05-28T01:51:05.450Z,1.90
2019-05-28T01:53:31.613Z,2.43
2019-05-28T01:55:57.812Z,2.57
2019-05-28T01:58:23.971Z,2.00
2019-05-28T02:00:50.255Z,2.87
2019-05-28T02:03:16.473Z,2.53
2019-05-28T02:05:43.330Z,2.50
2019-05-28T02:08:09.601Z,2.53
2019-05-28T02:10:35.775Z,2.67
2019-05-28T02:13:02.228Z,2.83
2019-05-28T02:15:28.497Z,3.00
2019-05-28T02:17:54.658Z,2.73
2019-05-28T02:20:20.935Z,2.70
2019-05-28T02:22:47.140Z,2.70
2019-05-28T02:25:13.709Z,3.00
2019-05-28T02:27:39.869Z,2.73
2019-05-28T02:30:11.352Z,3.00
2019-05-28T02:32:37.592Z,2.63
2019-05-28T02:35:05.296Z,3.00
2019-05-28T02:37:31.534Z,3.53
2019-05-28T02:39:57.720Z,3.07
2019-05-28T02:42:23.910Z,3.50
2019-05-28T02:44:50.170Z,2.90
2019-05-28T02:47:16.336Z,2.93
2019-05-28T02:49:42.529Z,3.07
2019-05-28T02:52:08.856Z,2.63
2019-05-28T02:54:35.026Z,2.80
2019-05-28T02:57:02.207Z,3.17
2019-05-28T02:59:30.964Z,3.13
2019-05-28T03:01:57.626Z,3.07
2019-05-28T03:04:26.219Z,3.20
2019-05-28T03:06:53.074Z,2.80
2019-05-28T03:09:19.932Z,3.10
2019-05-28T03:11:46.156Z,2.90
2019-05-28T03:14:12.367Z,2.77
2019-05-28T03:16:43.051Z,2.87
2019-05-28T03:19:09.482Z,2.90
2019-05-28T03:21:36.162Z,3.23
2019-05-28T03:24:04.030Z,3.43
2019-05-28T03:26:30.308Z,3.03
2019-05-28T03:28:56.505Z,3.00
2019-05-28T03:31:23.008Z,2.97
2019-05-28T03:33:49.448Z,2.97
2019-05-28T03:36:17.315Z,2.93
2019-05-28T03:38:43.840Z,3.00
2019-05-28T03:41:10.075Z,2.23
2019-05-28T03:43:36.233Z,2.60
2019-05-28T03:46:02.596Z,2.67
2019-05-28T03:48:28.770Z,2.10
2019-05-28T03:50:54.955Z,2.47
2019-05-28T03:53:21.184Z,2.33
2019-05-28T03:55:47.365Z,2.40
2019-05-28T03:58:13.704Z,2.33
2019-05-28T04:00:39.930Z,2.10
2019-05-28T04:03:06.165Z,2.93
2019-05-28T04:05:32.597Z,2.07
2019-05-28T04:07:58.758Z,2.10
2019-05-28T04:10:24.934Z,2.47
2019-05-28T04:12:51.201Z,2.30
2019-05-28T04:15:17.405Z,2.17
2019-05-28T04:17:43.603Z,2.03
2019-05-28T04:20:10.011Z,2.40
2019-05-28T04:22:36.288Z,2.00
2019-05-28T04:25:04.773Z,2.20
2019-05-28T04:27:30.945Z,2.10
2019-05-28T04:29:57.211Z,2.30
2019-05-28T04:32:38.985Z,2.03
2019-05-28T04:34:51.635Z,1.97
2019-05-28T04:37:17.815Z,2.13
2019-05-28T04:39:44.084Z,2.10
2019-05-28T04:42:10.291Z,2.33
2019-05-28T04:44:36.537Z,2.03
2019-05-28T04:47:02.800Z,2.03
2019-05-28T04:49:29.012Z,2.47
2019-05-28T04:51:55.264Z,1.50
2019-05-28T04:54:21.489Z,1.77
2019-05-28T04:56:47.743Z,2.47
2019-05-28T04:59:13.995Z,1.80
2019-05-28T05:01:40.190Z,2.27
2019-05-28T05:04:06.336Z,1.50
2019-05-28T05:06:32.520Z,2.57
2019-05-28T05:08:58.708Z,2.00
2019-05-28T05:11:24.970Z,2.23
2019-05-28T05:13:51.179Z,1.50
2019-05-28T05:16:17.832Z,1.60
2019-05-28T05:18:44.494Z,1.63
2019-05-28T05:21:10.753Z,1.73
2019-05-28T05:23:37.208Z,1.67
2019-05-28T05:26:03.369Z,1.33
2019-05-28T05:28:29.662Z,1.70
2019-05-28T05:30:55.866Z,1.63
2019-05-28T05:33:22.033Z,1.77
2019-05-28T05:35:48.189Z,1.80
2019-05-28T05:38:14.380Z,1.83
2019-05-28T05:40:40.601Z,1.87
2019-05-28T05:43:06.782Z,1.37
2019-05-28T05:45:33.071Z,1.80
2019-05-28T05:47:59.380Z,1.30
2019-05-28T05:50:25.658Z,1.30
2019-05-28T05:52:51.842Z,1.73
2019-05-28T05:55:18.011Z,1.37
2019-05-28T05:57:44.303Z,1.73
2019-05-28T06:00:11.796Z,1.47
2019-05-28T06:02:38.172Z,1.53
2019-05-28T06:05:05.034Z,1.70
2019-05-28T06:07:31.390Z,2.07
2019-05-28T06:09:57.811Z,1.93
2019-05-28T06:12:24.003Z,1.70
2019-05-28T06:14:50.202Z,1.50
2019-05-28T06:17:16.403Z,1.33
2019-05-28T06:19:42.882Z,1.23
2019-05-28T06:22:09.164Z,0.90
2019-05-28T06:24:35.370Z,1.13
2019-05-28T06:27:01.624Z,1.30
2019-05-28T06:29:27.766Z,1.17
2019-05-28T06:31:54.075Z,1.07
2019-05-28T06:34:20.411Z,1.40
2019-05-28T06:36:46.610Z,1.37
2019-05-28T06:39:12.924Z,1.00
2019-05-28T06:41:39.283Z,1.30
2019-05-28T06:44:05.554Z,1.53
2019-05-28T06:46:31.794Z,1.20
2019-05-28T06:48:57.966Z,1.07
2019-05-28T06:51:24.178Z,1.27
2019-05-28T06:53:50.343Z,1.53
2019-05-28T06:56:16.554Z,1.03
2019-05-28T06:58:42.731Z,1.83
2019-05-28T07:01:09.075Z,1.13
2019-05-28T07:03:35.297Z,1.40
2019-05-28T07:06:06.941Z,1.20
2019-05-28T07:08:29.632Z,1.00
2019-05-28T07:10:58.333Z,1.10
2019-05-28T07:13:23.915Z,1.37
2019-05-28T07:15:50.083Z,1.20
2019-05-28T07:18:16.236Z,1.30
2019-05-28T07:20:42.437Z,1.40
2019-05-28T07:23:08.895Z,1.25
2019-05-28T07:25:35.162Z,1.13
2019-05-28T07:28:10.836Z,1.05
2019-05-28T07:30:29.448Z,1.35
2019-05-28T07:32:55.810Z,1.23
2019-05-28T07:35:22.110Z,1.70
2019-05-28T07:37:48.368Z,1.42
2019-05-28T07:40:30.261Z,1.50
2019-05-28T07:42:42.811Z,1.22
2019-05-28T07:45:09.529Z,1.45
2019-05-28T07:47:35.840Z,1.32
2019-05-28T07:50:04.400Z,1.80
2019-05-28T07:52:30.574Z,1.20
2019-05-28T07:54:56.851Z,1.20
2019-05-28T07:57:23.044Z,1.50
2019-05-28T07:59:49.312Z,1.30
2019-05-28T08:02:15.507Z,1.50
2019-05-28T08:04:47.330Z,1.30
2019-05-28T08:07:09.853Z,1.30
2019-05-28T08:09:36.409Z,1.27
2019-05-28T08:12:02.792Z,1.20
2019-05-28T08:14:28.952Z,1.50
2019-05-28T08:16:55.260Z,1.33
2019-05-28T08:19:21.502Z,0.87
2019-05-28T08:21:47.933Z,0.90
2019-05-28T08:24:14.075Z,1.00
2019-05-28T08:26:40.315Z,0.80
2019-05-28T08:29:06.810Z,0.70
2019-05-28T08:31:33.042Z,0.80
2019-05-28T08:33:59.283Z,1.00
2019-05-28T08:36:25.450Z,0.97
2019-05-28T08:38:51.836Z,0.90
2019-05-28T08:41:17.985Z,1.03
2019-05-28T08:43:44.189Z,0.90
2019-05-28T08:46:10.382Z,0.97
2019-05-28T08:48:36.578Z,1.00
2019-05-28T08:51:02.861Z,0.90
2019-05-28T08:53:29.041Z,1.20
2019-05-28T08:55:55.191Z,0.90
2019-05-28T08:58:21.394Z,0.93
2019-05-28T09:00:47.581Z,0.80
2019-05-28T09:03:13.773Z,0.80
2019-05-28T09:05:40.142Z,1.10
2019-05-28T09:08:06.594Z,1.00
2019-05-28T09:10:33.162Z,0.73
2019-05-28T09:12:59.441Z,1.10
2019-05-28T09:15:25.751Z,1.17
2019-05-28T09:17:51.988Z,1.05
2019-05-28T09:20:18.354Z,0.88
2019-05-28T09:22:44.565Z,1.27
2019-05-28T09:25:10.929Z,1.17
2019-05-28T09:27:37.136Z,0.73
2019-05-28T09:30:06.785Z,1.00
2019-05-28T09:32:33.069Z,1.00
2019-05-28T09:35:02.589Z,1.20
2019-05-28T09:37:27.559Z,0.90
2019-05-28T09:39:53.765Z,1.27
2019-05-28T09:42:20.273Z,0.98
2019-05-28T09:44:46.555Z,1.15
2019-05-28T09:47:12.804Z,1.22
2019-05-28T09:49:39.155Z,1.10
2019-05-28T09:52:05.313Z,1.03
2019-05-28T09:54:31.483Z,0.90
2019-05-28T09:56:57.717Z,1.30
2019-05-28T09:59:24.096Z,1.27
2019-05-28T10:01:50.564Z,1.10
2019-05-28T10:04:16.777Z,0.93
2019-05-28T10:06:43.134Z,1.30
2019-05-28T10:09:09.325Z,1.30
2019-05-28T10:11:35.595Z,1.12
2019-05-28T10:14:01.870Z,1.20
2019-05-28T10:16:28.025Z,1.40
2019-05-28T10:18:54.182Z,1.30
2019-05-28T10:21:20.783Z,1.57
2019-05-28T10:23:46.936Z,1.30
2019-05-28T10:26:13.259Z,1.30
2019-05-28T10:28:39.737Z,1.22
2019-05-28T10:31:06.049Z,1.05
2019-05-28T10:33:32.394Z,1.20
2019-05-28T10:35:58.573Z,1.65
2019-05-28T10:38:24.785Z,1.27
2019-05-28T10:40:51.025Z,1.77
2019-05-28T10:43:17.301Z,1.67
2019-05-28T10:45:43.850Z,1.50
2019-05-28T10:48:10.248Z,1.45
2019-05-28T10:50:36.558Z,1.43
2019-05-28T10:53:03.011Z,1.77
2019-05-28T10:55:29.264Z,1.37
2019-05-28T10:57:55.455Z,1.75
2019-05-28T11:00:22.086Z,1.47
2019-05-28T11:02:48.894Z,1.47
2019-05-28T11:05:15.950Z,1.60
2019-05-28T11:07:42.109Z,2.30
2019-05-28T11:10:23.179Z,1.60
2019-05-28T11:12:37.274Z,1.87
2019-05-28T11:15:06.844Z,1.83
2019-05-28T11:17:33.462Z,1.80
2019-05-28T11:19:59.876Z,1.67
2019-05-28T11:22:26.167Z,1.97
2019-05-28T11:24:52.329Z,1.62
2019-05-28T11:27:19.034Z,1.90
2019-05-28T11:29:45.411Z,2.10
2019-05-28T11:32:11.647Z,1.80
2019-05-28T11:34:37.908Z,2.30
2019-05-28T11:37:09.665Z,2.12
2019-05-28T11:39:32.455Z,2.10
2019-05-28T11:41:58.913Z,2.33
2019-05-28T11:44:25.099Z,1.70
2019-05-28T11:46:51.307Z,1.97
2019-05-28T11:49:17.500Z,1.90
2019-05-28T11:51:43.967Z,2.30
2019-05-28T11:54:10.530Z,2.40
2019-05-28T11:56:36.911Z,2.03
2019-05-28T11:59:03.222Z,2.17
2019-05-28T12:01:34.715Z,2.30
2019-05-28T12:03:58.962Z,2.20
2019-05-28T12:06:25.253Z,1.97
2019-05-28T12:08:51.501Z,2.60
2019-05-28T12:11:17.810Z,2.07
2019-05-28T12:13:44.192Z,2.47
2019-05-28T12:16:10.595Z,2.10
2019-05-28T12:18:37.022Z,2.37
2019-05-28T12:21:03.417Z,2.10
2019-05-28T12:23:29.840Z,2.30
2019-05-28T12:25:56.090Z,2.30
2019-05-28T12:28:36.915Z,2.20
2019-05-28T12:30:50.774Z,2.27
2019-05-28T12:33:17.237Z,2.07
2019-05-28T12:35:43.525Z,2.30
2019-05-28T12:38:09.829Z,2.15
2019-05-28T12:40:47.292Z,2.23
2019-05-28T12:43:04.596Z,2.45
2019-05-28T12:45:35.457Z,2.35
2019-05-28T12:48:14.602Z,2.50
2019-05-28T12:50:27.505Z,2.57
2019-05-28T12:52:53.715Z,2.67
2019-05-28T12:55:20.762Z,2.37
2019-05-28T12:57:46.969Z,2.17
2019-05-28T13:00:13.848Z,2.08
2019-05-28T13:02:40.039Z,2.58
2019-05-28T13:05:12.821Z,2.40
2019-05-28T13:07:39.470Z,2.00
2019-05-28T13:10:07.450Z,2.12
2019-05-28T13:12:33.625Z,1.95
2019-05-28T13:15:01.077Z,2.20
2019-05-28T13:17:27.240Z,2.12
2019-05-28T13:19:53.542Z,2.12
2019-05-28T13:22:19.720Z,2.12
2019-05-28T13:24:46.226Z,1.98
2019-05-28T13:27:17.993Z,2.10
2019-05-28T13:29:40.570Z,1.72
2019-05-28T13:32:08.514Z,2.05
2019-05-28T13:34:34.996Z,2.12
2019-05-28T13:37:01.209Z,1.95
2019-05-28T13:39:27.461Z,2.15
2019-05-28T13:41:53.687Z,2.33
2019-05-28T13:44:20.553Z,2.42
2019-05-28T13:46:47.022Z,2.42
2019-05-28T13:49:13.297Z,2.37
2019-05-28T13:51:39.501Z,2.00
2019-05-28T13:54:05.736Z,2.22
2019-05-28T13:56:31.903Z,2.10
2019-05-28T13:58:58.082Z,2.75
2019-05-28T14:01:25.766Z,2.12
2019-05-28T14:03:52.197Z,2.33
2019-05-28T14:06:18.380Z,2.37
2019-05-28T14:08:47.432Z,2.70
2019-05-28T14:11:12.754Z,2.60
2019-05-28T14:13:38.907Z,2.27
2019-05-28T14:16:05.097Z,2.40
2019-05-28T14:18:31.298Z,2.58
2019-05-28T14:20:57.524Z,2.17
2019-05-28T14:23:23.669Z,2.00
2019-05-28T14:25:49.881Z,2.00
2019-05-28T14:28:16.145Z,1.90
2019-05-28T14:30:58.645Z,1.60
2019-05-28T14:33:10.601Z,1.90
2019-05-28T14:35:36.903Z,1.42
2019-05-28T14:38:03.405Z,1.67
2019-05-28T14:40:29.691Z,2.20
2019-05-28T14:42:56.061Z,1.90
2019-05-28T14:45:23.458Z,1.70
2019-05-28T14:47:50.009Z,1.70
2019-05-28T14:50:16.592Z,1.25
2019-05-28T14:52:42.799Z,1.55
2019-05-28T14:55:10.918Z,1.20
2019-05-28T14:57:37.150Z,1.35
2019-05-28T15:00:09.312Z,1.40
2019-05-28T15:02:35.507Z,1.20
2019-05-28T15:05:05.299Z,1.45
2019-05-28T15:07:31.538Z,1.35
2019-05-28T15:09:57.826Z,1.35
2019-05-28T15:12:24.095Z,1.30
2019-05-28T15:14:50.383Z,1.37
2019-05-28T15:17:16.638Z,1.42
2019-05-28T15:19:43.026Z,1.45
2019-05-28T15:22:09.457Z,1.02
2019-05-28T15:24:35.866Z,1.30
2019-05-28T15:27:02.284Z,1.00
2019-05-28T15:29:28.516Z,1.20
2019-05-28T15:31:54.681Z,1.10
2019-05-28T15:34:21.269Z,1.25
2019-05-28T15:36:47.474Z,1.17
2019-05-28T15:39:13.668Z,1.60
2019-05-28T15:41:42.842Z,1.37
2019-05-28T15:44:09.091Z,1.30
2019-05-28T15:46:35.501Z,1.10
2019-05-28T15:49:01.870Z,1.25
2019-05-28T15:51:28.252Z,1.27
2019-05-28T15:53:54.430Z,1.45
2019-05-28T15:56:20.977Z,1.20
2019-05-28T15:58:47.337Z,1.07
2019-05-28T16:01:13.570Z,0.80
2019-05-28T16:03:39.926Z,1.40
2019-05-28T16:06:06.245Z,1.10
2019-05-28T16:08:32.964Z,3.67
2019-05-28T16:10:59.201Z,1.22
2019-05-28T16:13:25.378Z,0.93
2019-05-28T16:15:51.570Z,1.00
2019-05-28T16:18:17.904Z,0.93
2019-05-28T16:20:44.223Z,0.90
2019-05-28T16:23:10.449Z,1.02
2019-05-28T16:25:36.663Z,1.10
2019-05-28T16:28:03.161Z,0.90
2019-05-28T16:30:29.532Z,0.80
2019-05-28T16:32:55.913Z,1.05
2019-05-28T16:35:22.522Z,1.07
2019-05-28T16:37:48.800Z,0.80
2019-05-28T16:40:16.552Z,1.20
2019-05-28T16:42:43.338Z,0.98
2019-05-28T16:45:10.172Z,0.73
2019-05-28T16:47:36.427Z,1.00
2019-05-28T16:50:04.479Z,0.93
2019-05-28T16:52:30.671Z,1.02
2019-05-28T16:54:56.846Z,1.10
2019-05-28T16:57:23.172Z,1.22
2019-05-28T16:59:49.374Z,0.72
2019-05-28T17:02:15.608Z,0.98
2019-05-28T17:04:41.857Z,1.17
2019-05-28T17:07:08.060Z,1.20
2019-05-28T17:09:34.254Z,1.10
2019-05-28T17:12:00.536Z,0.93
2019-05-28T17:14:27.206Z,1.00
2019-05-28T17:16:53.489Z,1.00
2019-05-28T17:19:19.986Z,0.93
2019-05-28T17:21:46.458Z,1.45
2019-05-28T17:24:12.636Z,1.20
2019-05-28T17:26:38.926Z,1.17
2019-05-28T17:29:05.087Z,1.00
2019-05-28T17:31:31.370Z,1.17
2019-05-28T17:33:57.633Z,1.00
2019-05-28T17:36:24.063Z,1.10
2019-05-28T17:38:50.276Z,0.85
2019-05-28T17:41:19.785Z,3.17
2019-05-28T17:43:44.669Z,1.45
2019-05-28T17:46:10.857Z,3.92
2019-05-28T17:48:37.116Z,4.58
2019-05-28T17:51:03.358Z,2.40
2019-05-28T17:53:29.566Z,1.00
2019-05-28T17:55:55.822Z,1.00
2019-05-28T17:58:22.282Z,0.80
2019-05-28T18:00:48.473Z,0.70
2019-05-28T18:03:14.708Z,0.77
2019-05-28T18:05:40.935Z,0.90
2019-05-28T18:08:07.158Z,1.13
2019-05-28T18:10:33.333Z,0.73
2019-05-28T18:12:59.608Z,0.80
2019-05-28T18:15:25.928Z,0.90
2019-05-28T18:17:52.356Z,0.90
2019-05-28T18:20:18.517Z,1.00
2019-05-28T18:22:44.712Z,0.70
2019-05-28T18:25:11.194Z,0.93
2019-05-28T18:27:37.511Z,1.20
2019-05-28T18:30:06.135Z,1.17
2019-05-28T18:32:32.528Z,0.87
2019-05-28T18:34:58.725Z,0.60
2019-05-28T18:37:24.956Z,0.63
2019-05-28T18:39:51.215Z,0.90
2019-05-28T18:42:17.518Z,0.90
2019-05-28T18:44:43.741Z,1.10
2019-05-28T18:47:09.924Z,0.60
2019-05-28T18:49:36.401Z,0.90
2019-05-28T18:52:02.992Z,0.70
2019-05-28T18:54:29.613Z,0.60
2019-05-28T18:56:55.919Z,0.70
2019-05-28T18:59:22.185Z,0.63
2019-05-28T19:01:48.667Z,0.70
2019-05-28T19:04:14.852Z,0.70
2019-05-28T19:06:41.196Z,0.87
2019-05-28T19:09:11.260Z,0.50
2019-05-28T19:11:38.130Z,0.60
2019-05-28T19:14:05.666Z,0.80
2019-05-28T19:16:32.060Z,0.67
2019-05-28T19:18:58.235Z,0.80
2019-05-28T19:21:24.548Z,0.60
2019-05-28T19:23:50.773Z,1.03
2019-05-28T19:26:16.976Z,0.43
2019-05-28T19:28:43.297Z,0.80
2019-05-28T19:31:09.560Z,0.40
2019-05-28T19:33:35.726Z,0.60
2019-05-28T19:36:02.419Z,0.63
2019-05-28T19:38:44.651Z,0.70
2019-05-28T19:40:57.122Z,0.50
2019-05-28T19:43:23.398Z,0.80
2019-05-28T19:45:49.652Z,0.80
2019-05-28T19:48:15.949Z,0.70
2019-05-28T19:50:42.154Z,0.80
2019-05-28T19:53:08.527Z,0.77
2019-05-28T19:55:34.739Z,0.63
2019-05-28T19:58:00.940Z,0.70
2019-05-28T20:00:27.204Z,0.57
2019-05-28T20:02:53.372Z,0.70
2019-05-28T20:05:19.824Z,1.00
2019-05-28T20:07:46.018Z,0.50
2019-05-28T20:10:12.783Z,0.50
2019-05-28T20:12:38.974Z,0.70
2019-05-28T20:15:07.889Z,0.60
2019-05-28T20:17:34.194Z,0.63
2019-05-28T20:20:00.458Z,0.70
2019-05-28T20:22:26.641Z,0.50
2019-05-28T20:24:53.315Z,0.63
2019-05-28T20:27:20.977Z,1.00
2019-05-28T20:29:47.254Z,0.60
2019-05-28T20:32:13.576Z,0.80
2019-05-28T20:34:39.730Z,0.90
2019-05-28T20:37:05.913Z,0.90
2019-05-28T20:39:32.181Z,0.97
2019-05-28T20:41:58.348Z,0.80
2019-05-28T20:44:24.532Z,0.77
2019-05-28T20:46:50.705Z,0.90
2019-05-28T20:49:16.962Z,0.67
2019-05-28T20:51:43.186Z,1.30
2019-05-28T20:54:09.360Z,0.80
2019-05-28T20:56:35.520Z,0.63
2019-05-28T20:59:01.775Z,0.80
2019-05-28T21:01:28.023Z,1.10
2019-05-28T21:03:54.211Z,0.83
2019-05-28T21:06:20.588Z,1.00
2019-05-28T21:08:48.004Z,0.60
2019-05-28T21:11:14.538Z,0.90
2019-05-28T21:13:40.720Z,1.10
2019-05-28T21:16:06.903Z,0.87
2019-05-28T21:18:33.079Z,0.70
2019-05-28T21:20:59.676Z,1.00
2019-05-28T21:23:25.909Z,1.07
2019-05-28T21:25:52.207Z,1.03
2019-05-28T21:28:18.509Z,0.80
2019-05-28T21:30:44.952Z,0.80
2019-05-28T21:33:11.185Z,0.80
2019-05-28T21:35:37.390Z,0.90
2019-05-28T21:38:03.582Z,0.80
2019-05-28T21:40:29.766Z,0.73
2019-05-28T21:43:01.277Z,0.77
2019-05-28T21:45:24.564Z,0.80
2019-05-28T21:47:50.753Z,1.00
2019-05-28T21:50:17.489Z,1.00
2019-05-28T21:52:43.822Z,1.00
2019-05-28T21:55:10.332Z,0.70
2019-05-28T21:57:36.530Z,1.00
2019-05-28T22:00:15.632Z,0.90
2019-05-28T22:02:41.906Z,0.87
2019-05-28T22:05:09.703Z,0.77
2019-05-28T22:07:36.024Z,0.90
2019-05-28T22:10:05.073Z,1.20
2019-05-28T22:12:31.228Z,0.90
2019-05-28T22:14:57.973Z,0.90
2019-05-28T22:17:24.155Z,1.00
2019-05-28T22:19:50.300Z,1.00
2019-05-28T22:22:16.530Z,1.00
2019-05-28T22:24:42.683Z,0.90
2019-05-28T22:27:09.049Z,1.10
2019-05-28T22:29:35.875Z,0.80
2019-05-28T22:32:02.846Z,1.00
2019-05-28T22:34:29.305Z,1.20
2019-05-28T22:36:56.195Z,1.20
2019-05-28T22:39:22.421Z,1.23
2019-05-28T22:41:48.556Z,1.70
2019-05-28T22:44:14.850Z,1.33
2019-05-28T22:46:41.002Z,1.03
2019-05-28T22:49:07.480Z,1.10
2019-05-28T22:51:34.048Z,1.00
2019-05-28T22:54:00.200Z,1.20
2019-05-28T22:56:26.369Z,1.60
2019-05-28T22:58:52.731Z,1.10
2019-05-28T23:01:18.915Z,1.40
2019-05-28T23:03:45.088Z,1.30
2019-05-28T23:06:11.313Z,0.83
2019-05-28T23:08:37.469Z,1.40
2019-05-28T23:11:04.819Z,1.27
2019-05-28T23:13:44.124Z,1.20
2019-05-28T23:15:59.948Z,1.03
2019-05-28T23:18:26.257Z,1.30
2019-05-28T23:20:52.445Z,1.00
2019-05-28T23:23:18.670Z,0.93
2019-05-28T23:25:45.222Z,1.27
2019-05-28T23:28:11.823Z,1.13
2019-05-28T23:30:38.084Z,1.40
2019-05-28T23:33:04.368Z,1.33
2019-05-28T23:35:30.636Z,1.20
2019-05-28T23:37:57.097Z,1.47
2019-05-28T23:40:23.248Z,1.27
2019-05-28T23:42:49.740Z,0.93
2019-05-28T23:45:16.611Z,0.83
2019-05-28T23:47:42.763Z,1.20
2019-05-28T23:50:13.004Z,1.10
2019-05-28T23:52:37.667Z,1.20
2019-05-28T23:55:05.619Z,1.23
2019-05-28T23:57:31.946Z,1.20
2019-05-28T23:59:58.117Z,1.20
